Time;durP1;ratioP1;P1;durP2;ratioP2;P2;SDS_P1;SDS_P2;PMS_P1;PMS_P2;Temp;Humidity;BMP_temperature;BMP_pressure;BME280_temperature;BME280_humidity;BME280_pressure;Samples;Min_cycle;Max_cycle;Signal;HPM_P1;HPM_P2
2023/12/28 00:01:29;;;;;;;2.37;1.53;;;;;;;16.44;58.68;100818.03;5057474;28;20031;-75
2023/12/28 00:03:54;;;;;;;4.00;1.40;;;;;;;16.59;58.17;100828.03;5051578;28;20477;-75
2023/12/28 00:06:20;;;;;;;4.70;2.10;;;;;;;16.35;59.39;100824.50;5040598;28;20021;-75
2023/12/28 00:08:45;;;;;;;2.30;1.70;;;;;;;15.86;59.76;100815.56;5038650;28;20535;-74
2023/12/28 00:11:11;;;;;;;6.63;1.90;;;;;;;16.18;59.77;100808.38;5055120;28;20032;-76
2023/12/28 00:13:36;;;;;;;5.07;1.67;;;;;;;16.14;59.41;100825.22;5035000;28;20048;-75
2023/12/28 00:16:02;;;;;;;3.63;2.00;;;;;;;16.58;58.29;100826.34;5030736;28;20481;-75
2023/12/28 00:18:27;;;;;;;2.63;1.93;;;;;;;16.53;58.75;100824.78;5045049;28;20036;-76
2023/12/28 00:20:53;;;;;;;5.40;1.60;;;;;;;16.42;58.40;100831.28;5052169;28;20111;-75
2023/12/28 00:23:20;;;;;;;2.90;1.40;;;;;;;16.50;58.48;100816.94;5066699;28;20476;-75
2023/12/28 00:25:45;;;;;;;2.33;1.53;;;;;;;16.85;57.85;100825.41;5050792;28;20020;-75
2023/12/28 00:28:11;;;;;;;4.97;1.30;;;;;;;16.53;58.97;100811.59;5047743;28;20654;-75
2023/12/28 00:30:36;;;;;;;6.70;1.70;;;;;;;16.68;58.81;100813.69;5063699;28;20048;-75
2023/12/28 00:33:02;;;;;;;3.17;1.50;;;;;;;16.72;57.15;100812.66;5068182;28;20403;-75
2023/12/28 00:35:27;;;;;;;10.60;2.30;;;;;;;16.28;58.15;100817.72;5071781;28;20480;-74
2023/12/28 00:37:53;;;;;;;4.07;1.60;;;;;;;16.47;58.63;100849.56;5053608;28;20039;-75
2023/12/28 00:40:18;;;;;;;1.87;1.40;;;;;;;15.96;60.42;100838.06;5050165;28;20036;-76
2023/12/28 00:42:44;;;;;;;3.70;1.70;;;;;;;16.58;58.25;100841.28;5065592;28;20399;-76
2023/12/28 00:45:12;;;;;;;3.67;2.07;;;;;;;16.25;58.79;100836.25;5064883;28;20025;-75
2023/12/28 00:47:37;;;;;;;3.80;1.10;;;;;;;16.70;57.33;100840.00;5064086;28;20098;-75
2023/12/28 00:50:03;;;;;;;6.93;1.37;;;;;;;16.90;56.46;100834.91;5057145;28;20033;-75
2023/12/28 00:52:31;;;;;;;2.00;1.13;;;;;;;16.70;57.81;100835.56;5061098;28;20033;-74
2023/12/28 00:54:57;;;;;;;5.73;1.83;;;;;;;16.88;56.71;100843.75;5050219;28;20124;-75
2023/12/28 00:57:22;;;;;;;6.27;1.60;;;;;;;16.59;58.03;100827.19;5060208;28;20028;-75
2023/12/28 00:59:47;;;;;;;1.73;1.20;;;;;;;16.78;57.08;100828.25;5059391;28;20098;-76
2023/12/28 01:02:13;;;;;;;1.87;1.40;;;;;;;16.45;58.30;100833.78;5058365;28;20024;-75
2023/12/28 01:04:38;;;;;;;3.60;1.57;;;;;;;16.69;57.21;100823.31;5069201;28;20024;-75
2023/12/28 01:07:05;;;;;;;3.63;1.50;;;;;;;16.48;58.08;100831.97;5062943;28;20112;-76
2023/12/28 01:09:32;;;;;;;1.97;1.10;;;;;;;16.05;58.11;100837.78;5062069;28;20472;-75
2023/12/28 01:11:58;;;;;;;2.17;1.30;;;;;;;16.59;57.13;100837.75;5049842;28;20468;-75
2023/12/28 01:14:24;;;;;;;2.90;1.20;;;;;;;17.21;56.21;100823.19;5048963;28;20036;-76
2023/12/28 01:16:50;;;;;;;4.60;1.40;;;;;;;16.28;57.58;100820.34;5053190;28;20077;-76
2023/12/28 01:19:15;;;;;;;5.07;1.40;;;;;;;16.09;58.72;100836.78;5050708;28;20040;-75
2023/12/28 01:21:41;;;;;;;10.47;1.77;;;;;;;16.93;56.95;100823.38;5046788;28;20099;-75
2023/12/28 01:24:06;;;;;;;8.20;1.80;;;;;;;16.38;58.02;100844.63;5069056;28;20115;-75
2023/12/28 01:26:31;;;;;;;2.13;1.63;;;;;;;16.36;58.44;100842.06;5049388;28;20036;-75
2023/12/28 01:28:57;;;;;;;6.43;1.70;;;;;;;16.29;58.88;100835.25;5049275;28;20047;-75
2023/12/28 01:31:22;;;;;;;3.33;1.53;;;;;;;16.02;59.16;100829.09;5034273;28;20048;-76
2023/12/28 01:33:47;;;;;;;3.63;1.93;;;;;;;16.27;58.19;100826.53;5067776;28;20238;-75
2023/12/28 01:36:20;;;;;;;5.13;1.90;;;;;;;16.33;57.42;100834.22;5062899;28;20120;-76
2023/12/28 01:38:46;;;;;;;7.75;1.75;;;;;;;16.37;59.16;100822.66;5065628;28;20034;-75
2023/12/28 01:41:12;;;;;;;7.50;1.83;;;;;;;16.96;56.84;100836.47;5050166;28;20029;-75
2023/12/28 01:43:38;;;;;;;3.13;1.77;;;;;;;16.84;56.54;100839.50;5058824;28;20056;-75
2023/12/28 01:46:05;;;;;;;3.10;1.73;;;;;;;16.09;59.18;100842.03;5045245;28;20075;-76
2023/12/28 01:48:31;;;;;;;6.90;1.60;;;;;;;15.65;59.78;100828.50;5056625;28;20488;-75
2023/12/28 01:50:56;;;;;;;5.50;2.10;;;;;;;17.02;55.95;100836.25;5044796;28;20139;-75
2023/12/28 01:53:22;;;;;;;2.50;1.60;;;;;;;15.81;58.56;100834.16;5056178;28;20480;-75
2023/12/28 01:55:48;;;;;;;1.97;1.40;;;;;;;16.31;57.71;100854.53;5045597;28;20318;-75
2023/12/28 01:58:13;;;;;;;5.77;2.13;;;;;;;16.75;57.16;100849.47;5071697;28;20028;-76
2023/12/28 02:00:40;;;;;;;6.50;1.83;;;;;;;16.45;58.16;100847.00;5044923;28;20057;-76
2023/12/28 02:03:07;;;;;;;7.23;1.93;;;;;;;15.76;59.60;100862.41;5061231;28;20029;-76
2023/12/28 02:05:35;;;;;;;5.40;1.40;;;;;;;15.98;58.76;100857.34;5058089;28;20510;-76
2023/12/28 02:08:01;;;;;;;3.30;1.50;;;;;;;15.95;59.29;100857.47;5055970;28;20055;-75
2023/12/28 02:10:27;;;;;;;4.10;2.40;;;;;;;15.22;61.98;100851.72;5058603;28;20399;-75
2023/12/28 02:12:53;;;;;;;2.73;1.40;;;;;;;16.01;58.83;100859.88;5054218;28;20036;-76
2023/12/28 02:15:19;;;;;;;2.97;1.33;;;;;;;15.61;59.47;100842.66;5070351;28;20023;-75
2023/12/28 02:17:45;;;;;;;1.87;1.27;;;;;;;16.27;57.43;100847.63;5064051;28;20535;-76
2023/12/28 02:20:11;;;;;;;7.60;2.07;;;;;;;16.49;57.45;100845.13;5047182;28;20055;-75
2023/12/28 02:22:37;;;;;;;3.63;1.50;;;;;;;16.15;58.14;100853.31;5055322;28;20040;-76
2023/12/28 02:25:11;;;;;;;6.30;1.53;;;;;;;16.40;58.14;100853.34;5072448;28;20012;-76
2023/12/28 02:27:39;;;;;;;5.13;1.60;;;;;;;15.56;60.36;100844.56;5037090;28;20132;-76
2023/12/28 02:30:07;;;;;;;3.03;1.70;;;;;;;15.50;59.65;100831.59;5070434;28;20067;-75
2023/12/28 02:32:39;;;;;;;7.90;1.67;;;;;;;16.30;58.59;100842.25;5070219;28;20516;-76
2023/12/28 02:35:34;;;;;;;4.75;1.85;;;;;;;15.93;58.59;100832.91;5061984;28;20033;-75
2023/12/28 02:38:05;;;;;;;3.33;1.63;;;;;;;16.14;57.72;100838.41;5064112;28;20499;-76
2023/12/28 02:40:38;;;;;;;2.77;1.53;;;;;;;15.66;59.70;100835.50;5058371;28;20061;-74
2023/12/28 02:43:05;;;;;;;4.20;1.27;;;;;;;16.05;58.87;100847.47;5058438;28;20054;-76
2023/12/28 02:45:31;;;;;;;5.20;1.37;;;;;;;16.25;57.39;100847.69;5051137;28;20025;-76
2023/12/28 02:47:56;;;;;;;2.23;1.20;;;;;;;15.39;61.27;100866.16;5051915;28;20169;-75
2023/12/28 02:50:21;;;;;;;1.67;1.20;;;;;;;16.03;58.43;100854.56;5059442;28;20025;-75
2023/12/28 02:52:47;;;;;;;4.70;1.40;;;;;;;16.79;56.56;100858.16;5045969;28;20128;-76
2023/12/28 02:55:12;;;;;;;4.63;1.50;;;;;;;16.09;58.13;100860.50;5050576;28;20071;-75
2023/12/28 02:57:38;;;;;;;4.17;1.57;;;;;;;16.50;56.57;100857.41;5048902;28;20025;-76
2023/12/28 03:00:08;;;;;;;3.87;1.20;;;;;;;15.35;58.88;100849.59;5048037;28;20026;-74
2023/12/28 03:02:36;;;;;;;7.93;1.43;;;;;;;16.13;59.56;100855.13;5049181;28;20021;-76
2023/12/28 03:05:01;;;;;;;5.77;1.87;;;;;;;16.24;58.16;100848.59;5070242;28;20404;-75
2023/12/28 03:07:27;;;;;;;2.90;2.00;;;;;;;15.97;60.13;100850.34;5047598;28;20104;-76
2023/12/28 03:09:52;;;;;;;10.80;1.50;;;;;;;16.38;57.68;100845.47;5071273;28;20028;-76
2023/12/28 03:12:18;;;;;;;5.90;1.43;;;;;;;16.26;57.24;100856.44;5072284;28;20047;-76
2023/12/28 03:14:43;;;;;;;4.60;1.60;;;;;;;15.35;59.97;100846.94;5054851;28;20385;-75
2023/12/28 03:17:09;;;;;;;5.93;1.30;;;;;;;15.61;59.12;100848.78;5051334;28;20442;-76
2023/12/28 03:19:36;;;;;;;9.33;1.20;;;;;;;15.56;59.74;100834.03;5056710;28;20420;-75
2023/12/28 03:22:01;;;;;;;6.03;1.40;;;;;;;15.85;58.88;100845.47;5051367;28;20021;-76
2023/12/28 03:24:26;;;;;;;2.10;1.17;;;;;;;16.19;58.03;100844.38;5051509;28;20056;-76
2023/12/28 03:26:52;;;;;;;1.97;1.13;;;;;;;16.01;56.75;100833.53;5067672;28;20024;-75
2023/12/28 03:29:17;;;;;;;3.90;1.10;;;;;;;16.17;57.63;100819.81;5063982;28;20483;-76
2023/12/28 03:31:43;;;;;;;13.77;2.17;;;;;;;15.46;60.04;100822.06;5071118;28;20021;-76
2023/12/28 03:34:08;;;;;;;4.60;1.10;;;;;;;16.43;56.28;100822.44;5062263;28;20025;-76
2023/12/28 03:36:33;;;;;;;3.67;1.03;;;;;;;15.66;57.50;100811.78;5050794;28;20021;-75
2023/12/28 03:38:59;;;;;;;2.87;1.50;;;;;;;15.88;58.12;100816.38;5047008;28;20021;-76
2023/12/28 03:41:24;;;;;;;6.73;1.33;;;;;;;15.68;58.46;100802.03;5030946;28;20027;-76
2023/12/28 03:43:49;;;;;;;8.63;1.70;;;;;;;15.36;59.80;100822.34;5041883;28;20062;-75
2023/12/28 03:46:15;;;;;;;3.30;1.13;;;;;;;15.50;59.76;100821.06;5068023;28;20031;-76
2023/12/28 03:48:40;;;;;;;2.37;1.10;;;;;;;15.64;58.75;100810.94;5054342;28;20523;-76
2023/12/28 03:51:06;;;;;;;5.83;2.33;;;;;;;15.76;57.93;100825.53;5071598;28;20012;-75
2023/12/28 03:53:32;;;;;;;7.70;1.60;;;;;;;15.85;58.21;100819.13;5054199;28;20124;-75
2023/12/28 03:56:00;;;;;;;2.97;0.90;;;;;;;15.62;58.40;100823.31;5056979;28;20082;-76
2023/12/28 03:58:26;;;;;;;3.03;1.37;;;;;;;15.53;59.09;100826.25;5053956;28;20029;-76
2023/12/28 04:00:52;;;;;;;8.47;1.13;;;;;;;15.65;57.99;100814.44;5068549;28;20021;-76
2023/12/28 04:03:18;;;;;;;7.30;1.37;;;;;;;15.37;58.96;100810.91;5051513;28;20025;-75
2023/12/28 04:05:43;;;;;;;5.47;1.70;;;;;;;16.02;58.04;100811.53;5060504;28;20116;-75
2023/12/28 04:08:09;;;;;;;4.63;1.40;;;;;;;15.61;58.55;100817.19;5045563;28;20032;-75
2023/12/28 04:10:36;;;;;;;12.50;1.50;;;;;;;15.66;57.95;100816.16;5067479;28;20025;-74
2023/12/28 04:13:02;;;;;;;2.73;0.93;;;;;;;15.50;58.36;100823.72;5066619;28;20111;-75
2023/12/28 04:15:27;;;;;;;5.60;1.07;;;;;;;16.73;55.80;100822.28;5050810;28;20131;-76
2023/12/28 04:17:53;;;;;;;9.33;1.83;;;;;;;16.10;57.02;100814.78;5046430;28;20056;-76
2023/12/28 04:20:18;;;;;;;5.47;1.47;;;;;;;16.03;56.84;100823.81;5057947;28;20031;-76
2023/12/28 04:22:44;;;;;;;3.40;1.10;;;;;;;15.58;57.80;100806.75;5063167;28;20020;-74
2023/12/28 04:25:10;;;;;;;6.73;1.70;;;;;;;15.67;57.37;100816.13;5061821;28;20119;-75
2023/12/28 04:27:36;;;;;;;7.57;1.30;;;;;;;16.21;56.15;100810.91;5060729;28;20029;-75
2023/12/28 04:30:01;;;;;;;7.77;1.20;;;;;;;15.84;56.98;100809.47;5059775;28;20081;-75
2023/12/28 04:32:27;;;;;;;2.40;1.07;;;;;;;16.34;55.00;100817.50;5078605;28;20024;-75
2023/12/28 04:34:53;;;;;;;6.30;1.10;;;;;;;15.94;55.77;100818.81;5058449;28;20610;-75
2023/12/28 04:37:19;;;;;;;5.70;1.10;;;;;;;17.06;53.72;100814.09;5069957;28;20111;-76
2023/12/28 04:39:45;;;;;;;6.87;1.10;;;;;;;15.93;55.48;100825.84;5064277;28;20113;-75
2023/12/28 04:42:10;;;;;;;7.37;1.20;;;;;;;15.91;55.96;100827.69;5069577;28;20119;-75
2023/12/28 04:44:39;;;;;;;4.03;1.00;;;;;;;16.57;54.02;100823.75;5052559;28;20060;-74
2023/12/28 04:47:05;;;;;;;3.27;0.80;;;;;;;16.90;53.71;100826.13;5070386;28;20044;-76
2023/12/28 04:49:30;;;;;;;7.47;1.20;;;;;;;16.88;52.39;100827.94;5050392;28;20107;-76
2023/12/28 04:51:56;;;;;;;8.53;0.97;;;;;;;16.42;53.86;100828.63;5069730;28;20144;-75
2023/12/28 04:54:21;;;;;;;5.07;1.17;;;;;;;16.35;54.50;100835.03;5060074;28;20492;-75
2023/12/28 04:56:47;;;;;;;2.50;1.10;;;;;;;16.48;53.64;100842.53;5049803;28;20028;-75
2023/12/28 04:59:13;;;;;;;10.43;2.07;;;;;;;16.51;53.09;100837.16;5045873;28;20619;-75
2023/12/28 05:01:45;;;;;;;8.27;1.13;;;;;;;16.53;53.59;100843.25;5063019;28;20060;-75
2023/12/28 05:04:11;;;;;;;5.60;1.30;;;;;;;16.37;53.98;100835.84;5070032;28;20024;-75
2023/12/28 05:06:37;;;;;;;6.03;1.80;;;;;;;16.69;53.13;100848.84;5052690;28;20049;-75
2023/12/28 05:09:02;;;;;;;9.87;1.53;;;;;;;16.41;53.75;100844.53;5046155;28;20512;-76
2023/12/28 05:11:27;;;;;;;6.00;1.00;;;;;;;16.52;52.40;100841.53;5051537;28;20023;-74
2023/12/28 05:13:53;;;;;;;8.83;1.20;;;;;;;16.84;52.46;100850.06;5048828;28;20029;-75
2023/12/28 05:16:20;;;;;;;11.83;1.93;;;;;;;16.23;53.87;100856.56;5053135;28;20074;-75
2023/12/28 05:18:48;;;;;;;6.83;1.00;;;;;;;16.24;53.62;100850.38;5045714;28;20033;-75
2023/12/28 05:21:14;;;;;;;4.43;1.20;;;;;;;16.21;53.37;100851.34;5053268;28;20029;-75
2023/12/28 05:23:39;;;;;;;3.03;1.37;;;;;;;16.91;51.45;100841.03;5061256;28;20082;-75
2023/12/28 05:26:05;;;;;;;9.83;2.33;;;;;;;16.24;53.79;100837.19;5050154;28;20040;-74
2023/12/28 05:28:32;;;;;;;9.37;2.20;;;;;;;15.98;53.49;100846.81;5065188;28;20090;-74
2023/12/28 05:30:58;;;;;;;10.87;1.77;;;;;;;16.50;53.22;100853.88;5051751;28;20123;-75
2023/12/28 05:33:27;;;;;;;4.40;1.00;;;;;;;16.61;52.28;100851.75;5050321;28;20036;-75
2023/12/28 05:35:52;;;;;;;6.50;1.27;;;;;;;16.69;51.40;100857.63;5052353;28;20025;-75
2023/12/28 05:38:18;;;;;;;8.87;1.40;;;;;;;17.04;51.47;100855.53;5048677;28;20028;-76
2023/12/28 05:40:44;;;;;;;8.30;1.70;;;;;;;16.77;53.06;100852.94;5052576;28;20029;-75
2023/12/28 05:43:10;;;;;;;10.00;1.33;;;;;;;16.86;51.50;100846.47;5051047;28;20021;-76
2023/12/28 05:45:35;;;;;;;15.70;1.40;;;;;;;16.02;53.41;100843.16;5051389;28;20396;-75
2023/12/28 05:48:01;;;;;;;4.97;0.97;;;;;;;16.57;52.82;100845.72;5059015;28;20489;-75
2023/12/28 05:50:26;;;;;;;6.27;1.57;;;;;;;15.91;54.00;100850.56;5049329;28;20045;-76
2023/12/28 05:52:52;;;;;;;9.90;1.07;;;;;;;16.38;53.83;100853.41;5049554;28;20033;-76
2023/12/28 05:55:17;;;;;;;5.00;1.40;;;;;;;15.49;54.70;100848.31;5052436;28;20183;-74
2023/12/28 05:57:42;;;;;;;4.97;1.07;;;;;;;16.41;53.55;100848.00;5053892;28;20028;-75
2023/12/28 06:00:09;;;;;;;11.20;1.73;;;;;;;16.95;51.92;100850.56;5069847;28;20495;-75
2023/12/28 06:02:35;;;;;;;3.43;1.17;;;;;;;16.87;51.71;100845.56;5068179;28;20020;-75
2023/12/28 06:05:00;;;;;;;6.87;1.33;;;;;;;17.12;51.11;100858.75;5056197;28;20040;-75
2023/12/28 06:07:26;;;;;;;10.33;1.20;;;;;;;16.18;53.46;100863.75;5065551;28;20028;-75
2023/12/28 06:09:51;;;;;;;8.93;1.10;;;;;;;16.29;53.01;100861.63;5058409;28;20037;-75
2023/12/28 06:12:16;;;;;;;8.20;0.97;;;;;;;16.68;51.81;100863.81;5065533;28;20067;-75
2023/12/28 06:14:42;;;;;;;8.27;1.40;;;;;;;17.05;51.42;100866.94;5074174;28;20376;-76
2023/12/28 06:17:07;;;;;;;7.27;1.03;;;;;;;16.33;52.34;100875.56;5064546;28;20037;-75
2023/12/28 06:19:33;;;;;;;8.70;1.50;;;;;;;16.34;51.99;100880.78;5051176;28;20025;-74
2023/12/28 06:21:58;;;;;;;8.57;0.93;;;;;;;16.43;51.95;100872.56;5059882;28;20078;-75
2023/12/28 06:24:24;;;;;;;5.23;1.83;;;;;;;16.28;52.11;100887.13;5072209;28;20035;-75
2023/12/28 06:26:50;;;;;;;9.43;1.00;;;;;;;16.11;52.35;100863.97;5068607;28;20021;-75
2023/12/28 06:29:16;;;;;;;12.27;1.47;;;;;;;16.66;52.05;100870.06;5048994;28;20031;-75
2023/12/28 06:31:41;;;;;;;12.30;1.70;;;;;;;16.72;51.28;100870.72;5037536;28;20115;-75
2023/12/28 06:34:06;;;;;;;10.23;1.57;;;;;;;16.42;51.35;100884.03;5065687;28;20059;-75
2023/12/28 06:36:33;;;;;;;17.00;2.30;;;;;;;17.19;50.61;100879.66;5045745;28;20479;-76
2023/12/28 06:38:59;;;;;;;9.57;1.57;;;;;;;16.23;52.29;100873.22;5054857;28;20183;-74
2023/12/28 06:41:25;;;;;;;13.30;1.47;;;;;;;16.44;51.64;100868.16;5053906;28;20722;-75
2023/12/28 06:43:51;;;;;;;12.10;1.77;;;;;;;16.82;50.77;100865.13;5068437;28;20040;-76
2023/12/28 06:46:17;;;;;;;12.10;1.63;;;;;;;16.55;51.44;100868.63;5053774;28;20032;-75
2023/12/28 06:48:43;;;;;;;15.83;1.57;;;;;;;16.35;51.19;100882.53;5060335;28;20112;-74
2023/12/28 06:51:09;;;;;;;8.97;1.63;;;;;;;16.73;51.72;100890.03;5051386;28;20050;-74
2023/12/28 06:53:34;;;;;;;12.23;1.40;;;;;;;15.59;53.25;100902.44;5067951;28;20032;-75
2023/12/28 06:56:00;;;;;;;9.57;1.13;;;;;;;16.25;52.18;100896.91;5069342;28;20032;-75
2023/12/28 06:58:25;;;;;;;12.17;2.00;;;;;;;16.44;51.96;100911.25;5058688;28;20083;-75
2023/12/28 07:00:51;;;;;;;12.43;2.30;;;;;;;16.96;50.22;100915.66;5050580;28;20037;-75
2023/12/28 07:03:16;;;;;;;10.53;1.30;;;;;;;15.99;52.02;100900.38;5056418;28;20033;-75
2023/12/28 07:05:42;;;;;;;8.33;0.80;;;;;;;15.71;53.27;100899.44;5050627;28;20027;-75
2023/12/28 07:08:08;;;;;;;9.93;1.80;;;;;;;15.77;52.76;100896.63;5060073;28;20036;-79
2023/12/28 07:10:33;;;;;;;7.33;0.83;;;;;;;15.90;52.79;100918.22;5052051;28;20550;-76
2023/12/28 07:12:59;;;;;;;5.33;1.63;;;;;;;16.01;53.32;100925.78;5050461;28;20036;-75
2023/12/28 07:15:25;;;;;;;7.20;1.43;;;;;;;15.77;53.63;100922.09;5063859;28;20491;-75
2023/12/28 07:17:50;;;;;;;11.27;1.40;;;;;;;16.53;52.25;100909.22;5054398;28;20052;-76
2023/12/28 07:20:15;;;;;;;8.43;1.80;;;;;;;16.03;52.95;100907.28;5048795;28;20507;-75
2023/12/28 07:22:41;;;;;;;9.50;1.00;;;;;;;16.61;52.20;100917.72;5057043;28;20527;-75
2023/12/28 07:25:07;;;;;;;9.20;1.30;;;;;;;15.80;53.89;100916.78;5060069;28;20083;-74
2023/12/28 07:27:34;;;;;;;6.07;1.17;;;;;;;16.71;51.95;100927.03;5051597;28;20557;-75
2023/12/28 07:29:59;;;;;;;6.17;1.70;;;;;;;16.16;53.29;100923.59;5052370;28;20105;-75
2023/12/28 07:32:25;;;;;;;6.30;1.40;;;;;;;15.91;53.43;100946.31;5052813;28;20111;-75
2023/12/28 07:34:53;;;;;;;13.03;1.20;;;;;;;16.43;52.59;100942.91;5061662;28;20033;-75
2023/12/28 07:37:18;;;;;;;13.70;1.40;;;;;;;16.92;51.71;100936.03;5051218;28;20021;-76
2023/12/28 07:39:44;;;;;;;10.43;1.20;;;;;;;16.81;51.20;100947.84;5051663;28;20035;-75
2023/12/28 07:42:09;;;;;;;6.57;1.23;;;;;;;16.43;52.04;100949.06;5031524;28;20068;-74
2023/12/28 07:44:35;;;;;;;12.87;1.53;;;;;;;16.58;51.69;100941.56;5031297;28;20095;-74
2023/12/28 07:47:00;;;;;;;5.47;1.13;;;;;;;15.97;54.02;100955.78;5035610;28;20527;-74
2023/12/28 07:49:26;;;;;;;8.50;1.00;;;;;;;16.38;52.01;100943.09;5049854;28;20040;-75
2023/12/28 07:51:51;;;;;;;8.07;0.90;;;;;;;16.68;51.39;100950.03;5048126;28;20441;-77
2023/12/28 07:54:17;;;;;;;11.00;1.13;;;;;;;16.55;51.66;100936.38;5063375;28;20033;-76
2023/12/28 07:56:42;;;;;;;10.20;1.10;;;;;;;16.53;51.88;100943.50;5051488;28;20036;-76
2023/12/28 07:59:09;;;;;;;8.97;1.33;;;;;;;16.16;52.94;100947.34;5061857;28;20033;-76
2023/12/28 08:01:35;;;;;;;13.20;2.50;;;;;;;16.34;52.13;100944.09;5061618;28;20035;-75
2023/12/28 08:04:01;;;;;;;6.33;0.90;;;;;;;15.71;53.59;100943.38;5050933;28;20468;-76
2023/12/28 08:06:29;;;;;;;13.00;2.03;;;;;;;15.81;54.03;100944.84;5050914;28;20040;-77
2023/12/28 08:08:54;;;;;;;7.87;1.77;;;;;;;16.67;52.23;100951.81;5050561;28;20079;-76
2023/12/28 08:11:20;;;;;;;8.70;1.00;;;;;;;16.11;52.83;100953.63;5050092;28;20025;-75
2023/12/28 08:13:45;;;;;;;6.33;0.83;;;;;;;16.60;51.78;100956.44;5051802;28;20040;-77
2023/12/28 08:16:10;;;;;;;10.33;1.60;;;;;;;16.36;52.07;100947.56;5070581;28;20032;-76
2023/12/28 08:18:36;;;;;;;12.10;1.67;;;;;;;15.74;54.35;100959.09;5070423;28;20438;-75
2023/12/28 08:21:01;;;;;;;14.70;1.33;;;;;;;16.14;53.26;100962.31;5051647;28;20036;-76
2023/12/28 08:23:26;;;;;;;7.07;1.80;;;;;;;16.00;53.43;100965.38;5066986;28;20389;-76
2023/12/28 08:25:52;;;;;;;14.27;1.67;;;;;;;16.14;53.75;100967.59;5082625;28;20060;-75
2023/12/28 08:28:17;;;;;;;8.80;2.07;;;;;;;16.31;52.44;100970.56;5071068;28;20033;-76
2023/12/28 08:30:42;;;;;;;11.07;1.87;;;;;;;16.06;52.98;100960.78;5057584;28;20020;-76
2023/12/28 08:33:08;;;;;;;11.67;1.47;;;;;;;16.54;52.20;100974.22;5067646;28;20050;-76
2023/12/28 08:35:33;;;;;;;11.23;2.63;;;;;;;16.54;52.37;100977.75;5060913;28;20036;-75
2023/12/28 08:37:59;;;;;;;7.93;1.60;;;;;;;16.75;51.98;100965.63;5069931;28;20020;-76
2023/12/28 08:40:25;;;;;;;9.23;1.47;;;;;;;16.34;52.48;100970.47;5062420;28;20461;-75
2023/12/28 08:42:50;;;;;;;13.10;1.30;;;;;;;16.22;52.72;100978.78;5050341;28;20036;-76
2023/12/28 08:45:16;;;;;;;10.33;2.57;;;;;;;16.66;51.61;100967.69;5057892;28;20028;-76
2023/12/28 08:47:41;;;;;;;3.67;0.93;;;;;;;16.57;52.16;100976.78;5070071;28;20053;-75
2023/12/28 08:50:07;;;;;;;10.53;1.13;;;;;;;16.56;52.18;100982.97;5065090;28;20029;-75
2023/12/28 08:52:32;;;;;;;14.13;1.53;;;;;;;16.01;53.30;100977.66;5049981;28;20025;-75
2023/12/28 08:54:58;;;;;;;7.57;1.90;;;;;;;15.92;53.09;100992.84;5053586;28;20551;-75
2023/12/28 08:57:23;;;;;;;15.97;1.57;;;;;;;17.01;50.90;100985.03;5070157;28;20056;-76
2023/12/28 08:59:49;;;;;;;8.80;1.60;;;;;;;16.51;51.66;100992.81;5069937;28;20480;-75
2023/12/28 09:02:14;;;;;;;10.10;1.37;;;;;;;16.56;52.70;100975.06;5050706;28;20174;-76
2023/12/28 09:04:39;;;;;;;11.03;1.30;;;;;;;16.30;52.38;100989.94;5050851;28;20099;-76
2023/12/28 09:07:05;;;;;;;8.70;1.60;;;;;;;16.45;52.28;100994.72;5068048;28;20476;-76
2023/12/28 09:09:30;;;;;;;11.10;1.27;;;;;;;16.41;51.62;100987.81;5070018;28;20519;-75
2023/12/28 09:11:56;;;;;;;4.93;1.00;;;;;;;16.67;52.74;100999.31;5054306;28;20397;-76
2023/12/28 09:14:21;;;;;;;10.70;1.80;;;;;;;16.94;51.66;100997.56;5050450;28;20495;-76
2023/12/28 09:16:47;;;;;;;10.50;1.63;;;;;;;15.89;52.48;101007.88;5065515;28;20032;-74
2023/12/28 09:19:13;;;;;;;7.97;1.90;;;;;;;16.71;51.35;100993.03;5069216;28;20519;-75
2023/12/28 09:21:38;;;;;;;9.60;2.47;;;;;;;16.57;52.11;101005.81;5060080;28;20037;-76
2023/12/28 09:24:03;;;;;;;12.30;1.50;;;;;;;16.46;52.08;101011.44;5051402;28;20033;-75
2023/12/28 09:26:29;;;;;;;11.60;2.00;;;;;;;16.83;51.31;101004.06;5059376;28;20112;-75
2023/12/28 09:28:55;;;;;;;16.33;2.17;;;;;;;17.35;49.84;101012.91;5069730;28;20484;-76
2023/12/28 09:31:20;;;;;;;11.43;1.13;;;;;;;16.43;52.08;101008.88;5062087;28;20036;-75
2023/12/28 09:33:46;;;;;;;12.20;1.10;;;;;;;17.48;50.46;101020.41;5048590;28;20472;-76
2023/12/28 09:36:15;;;;;;;11.40;3.10;;;;;;;17.19;51.49;101022.28;5055663;28;20039;-76
2023/12/28 09:38:40;;;;;;;12.17;1.33;;;;;;;16.78;52.27;101028.84;5070667;28;20082;-76
2023/12/28 09:41:17;;;;;;;15.40;2.20;;;;;;;16.67;52.05;101025.69;5063761;28;20036;-76
2023/12/28 09:44:11;;;;;;;6.53;1.40;;;;;;;16.51;52.79;101042.94;5050563;28;20029;-75
2023/12/28 09:46:38;;;;;;;9.27;1.10;;;;;;;16.61;52.84;101033.84;5056421;28;20587;-75
2023/12/28 09:49:04;;;;;;;19.90;2.23;;;;;;;16.48;52.93;101040.41;5070736;28;20025;-75
2023/12/28 09:51:30;;;;;;;9.17;1.57;;;;;;;16.16;53.25;101040.47;5064606;28;20032;-74
2023/12/28 09:53:56;;;;;;;13.10;1.20;;;;;;;16.70;52.25;101045.84;5048819;28;20032;-76
2023/12/28 09:56:23;;;;;;;12.33;2.00;;;;;;;16.81;50.79;101043.72;5053859;28;20036;-76
2023/12/28 09:58:50;;;;;;;16.87;1.70;;;;;;;16.78;52.32;101039.41;5073103;28;20033;-76
2023/12/28 10:01:17;;;;;;;9.47;1.83;;;;;;;17.04;51.25;101050.94;5066379;28;20032;-76
2023/12/28 10:03:43;;;;;;;12.27;1.30;;;;;;;17.00;50.98;101044.03;5050166;28;20395;-76
2023/12/28 10:06:08;;;;;;;8.73;1.63;;;;;;;16.29;52.86;101056.78;5051517;28;20112;-75
2023/12/28 10:08:34;;;;;;;12.37;1.50;;;;;;;17.58;50.23;101050.84;5069770;28;20060;-76
2023/12/28 10:11:00;;;;;;;9.57;1.77;;;;;;;17.16;50.26;101031.16;5086417;28;20099;-75
2023/12/28 10:13:26;;;;;;;3.90;1.27;;;;;;;15.92;53.14;101073.69;5051150;28;20098;-75
2023/12/28 10:15:52;;;;;;;6.93;1.13;;;;;;;16.98;50.23;101072.25;5064805;28;20037;-74
2023/12/28 10:18:19;;;;;;;20.20;1.70;;;;;;;16.72;51.30;101066.00;5066709;28;20123;-76
2023/12/28 10:20:49;;;;;;;15.13;1.43;;;;;;;16.40;52.58;101056.47;5068942;28;20050;-75
2023/12/28 10:23:14;;;;;;;8.97;2.33;;;;;;;17.06;50.82;101053.50;5055035;28;20060;-76
2023/12/28 10:25:40;;;;;;;9.20;2.10;;;;;;;17.23;50.84;101053.81;5048780;28;20113;-76
2023/12/28 10:28:08;;;;;;;9.33;1.00;;;;;;;16.83;50.85;101051.59;5062134;28;20032;-75
2023/12/28 10:30:33;;;;;;;11.13;1.33;;;;;;;16.08;52.89;101056.50;5047804;28;20029;-75
2023/12/28 10:32:59;;;;;;;10.13;1.90;;;;;;;15.93;53.22;101051.69;5055240;28;20461;-74
2023/12/28 10:35:24;;;;;;;11.10;1.60;;;;;;;17.05;51.20;101057.06;5049007;28;20119;-76
2023/12/28 10:37:55;;;;;;;8.07;1.37;;;;;;;16.92;51.64;101040.78;5056016;28;20028;-76
2023/12/28 10:40:21;;;;;;;8.73;2.17;;;;;;;15.71;53.94;101039.09;5059604;28;20491;-74
2023/12/28 10:42:54;;;;;;;17.40;1.60;;;;;;;16.60;51.88;101040.03;5073728;28;20036;-76
2023/12/28 10:45:25;;;;;;;16.93;1.30;;;;;;;16.30;52.81;101047.97;5074183;28;20058;-76
2023/12/28 10:48:07;;;;;;;11.93;1.47;;;;;;;17.00;51.03;101037.88;5066710;28;20045;-76
2023/12/28 10:50:46;;;;;;;13.40;1.57;;;;;;;16.48;52.60;101030.69;5068136;28;20112;-75
2023/12/28 10:53:14;;;;;;;9.13;1.70;;;;;;;16.62;51.23;101038.19;5075397;28;20398;-75
2023/12/28 10:55:58;;;;;;;10.53;1.70;;;;;;;16.65;52.61;101042.50;5073489;28;20028;-75
2023/12/28 10:58:54;;;;;;;5.50;1.13;;;;;;;17.17;50.00;101045.22;5066460;28;20116;-75
2023/12/28 11:01:31;;;;;;;14.60;1.50;;;;;;;16.25;52.94;101039.31;5052368;28;20033;-76
2023/12/28 11:04:09;;;;;;;20.10;1.97;;;;;;;16.65;52.29;101032.81;5061582;28;20036;-76
2023/12/28 11:06:37;;;;;;;14.10;2.10;;;;;;;16.27;53.44;101037.53;5073161;28;20423;-75
2023/12/28 11:09:05;;;;;;;7.33;1.83;;;;;;;17.43;50.99;101037.28;5064094;28;20033;-76
2023/12/28 11:11:32;;;;;;;7.67;1.33;;;;;;;16.54;52.01;101051.63;5068185;28;20025;-75
2023/12/28 11:14:00;;;;;;;11.57;1.57;;;;;;;17.32;50.38;101049.97;5061073;28;20040;-75
2023/12/28 11:16:26;;;;;;;9.63;1.83;;;;;;;16.37;52.86;101038.94;5072240;28;20024;-76
2023/12/28 11:18:53;;;;;;;16.13;2.43;;;;;;;17.38;50.47;101027.75;5066916;28;20033;-76